EST,Max TemperatureF,Mean TemperatureF,Min TemperatureF,Max Dew PointF,MeanDew PointF,Min DewpointF,Max Humidity, Mean Humidity, Min Humidity, Max Sea Level PressureIn, Mean Sea Level PressureIn, Min Sea Level PressureIn, Max VisibilityMiles, Mean VisibilityMiles, Min VisibilityMiles, Max Wind SpeedMPH, Mean Wind SpeedMPH, Max Gust SpeedMPH,PrecipitationIn, CloudCover, Events, WindDirDegrees
2013-1-1,32,22,11,28,19,10,92,78,63,30.18,30.13,30.06,10,10,6,10,4,13,0.00,6,,310
2013-1-2,19,11,2,13,6,-1,95,81,67,30.28,30.23,30.16,10,10,8,14,5,12,0.00,2,,223
2013-1-3,29,19,8,25,16,3,85,74,62,30.28,30.21,30.15,10,9,6,20,12,24,T,7,Snow,245
2013-1-4,26,20,14,19,15,10,88,81,73,30.30,30.27,30.23,10,10,10,24,15,31,0.00,2,,238
2013-1-5,34,25,15,31,23,13,92,84,75,30.33,30.22,30.10,10,7,1,20,10,25,0.01,5,Snow,214
2013-1-6,35,30,25,31,27,21,89,84,78,30.35,30.10,29.96,10,8,4,28,14,35,T,8,Snow,249
2013-1-7,33,24,14,25,21,14,100,85,69,30.45,30.35,30.22,10,7,2,21,9,24,0.00,2,,213
2013-1-8,38,30,21,29,24,19,92,81,70,30.31,30.24,30.20,10,8,6,17,8,21,0.00,5,,192
2013-1-9,43,36,29,33,31,27,85,76,67,30.52,30.29,30.14,10,10,10,23,13,29,0.00,5,,238
2013-1-10,38,31,24,34,29,22,92,84,75,30.56,30.40,30.11,10,9,2,15,8,20,0.15,7,Rain,95
2013-1-11,57,47,37,52,46,35,100,86,72,30.07,29.89,29.80,10,9,2,23,11,30,0.61,7,Rain,187
2013-1-12,59,53,46,54,50,44,100,90,80,29.97,29.90,29.76,10,8,1,17,9,21,0.55,7,Rain,227
2013-1-13,53,39,25,52,37,21,100,96,92,30.15,29.91,29.71,10,5,1,23,10,26,1.14,8,Rain-Snow,310
2013-1-14,25,21,17,20,17,14,91,83,74,30.47,30.39,30.20,10,9,4,21,7,25,T,7,Snow,300
2013-1-15,28,22,16,21,18,14,92,81,69,30.45,30.36,30.16,10,10,8,12,5,15,0.00,5,,55
2013-1-16,35,29,22,27,23,19,96,76,56,30.13,30.03,29.91,10,10,7,21,10,25,0.00,5,,245
2013-1-17,39,30,20,28,23,14,92,73,54,30.40,30.22,30.03,10,10,7,20,9,26,0.00,4,,279
2013-1-18,37,28,19,25,19,14,84,70,56,30.49,30.33,30.08,10,10,10,30,15,38,0.00,3,,219
2013-1-19,49,42,35,34,30,25,73,63,53,30.07,29.94,29.79,10,10,10,33,21,39,0.00,2,,225
2013-1-20,43,31,18,31,13,9,70,59,47,30.26,30.15,29.80,10,10,9,39,15,47,T,5,Snow,296
2013-1-21,19,13,7,9,3,-5,73,63,53,30.25,30.14,30.07,10,9,1,30,17,36,T,6,Snow,273
2013-1-22,14,9,3,-1,-4,-5,72,59,46,30.38,30.33,30.24,10,10,10,23,14,28,0.00,4,,266
2013-1-23,19,14,8,13,4,-2,80,65,49,30.36,30.25,30.09,10,9,4,18,11,22,T,7,Snow,252
2013-1-24,22,14,6,14,7,2,83,62,41,30.64,30.44,30.12,10,9,0,26,8,37,T,6,Fog-Snow,14
2013-1-25,24,21,18,21,15,8,92,77,62,30.44,30.16,30.03,10,7,1,14,9,18,0.08,8,Snow,185
2013-1-26,27,23,19,21,18,16,92,78,63,30.47,30.31,30.11,10,8,3,12,6,15,T,8,Snow,286
2013-1-27,33,25,16,32,22,13,92,81,69,30.48,30.34,30.11,10,7,2,18,9,24,0.17,7,Rain,129
2013-1-28,48,41,33,48,41,32,100,96,92,30.10,30.00,29.93,6,2,0,22,11,26,0.18,8,Fog-Rain,204
2013-1-29,60,52,44,56,53,45,100,93,86,29.98,29.78,29.43,10,6,0,31,17,39,0.09,8,Fog-Rain-Thunderstorm,195
2013-1-30,64,47,30,57,45,25,100,89,78,29.47,29.33,29.21,10,8,1,38,17,46,0.45,8,Rain-Snow,242
2013-1-31,30,21,12,27,15,5,88,78,67,30.05,29.77,29.46,10,6,1,36,23,46,T,8,Snow,268